sensor_id;sensor_type;location;lat;lon;timestamp;temperature;humidity
12223;DHT22;6174;49.058;8.524;2023-04-16T06:00:35;9.00;99.90
12223;DHT22;6174;49.058;8.524;2023-04-16T06:03:02;9.00;99.90
12223;DHT22;6174;49.058;8.524;2023-04-16T06:05:29;9.00;99.90
12223;DHT22;6174;49.058;8.524;2023-04-16T06:07:56;8.90;99.90
12223;DHT22;6174;49.058;8.524;2023-04-16T06:10:23;9.00;99.90
12223;DHT22;6174;49.058;8.524;2023-04-16T06:12:49;9.00;99.90
12223;DHT22;6174;49.058;8.524;2023-04-16T06:15:16;9.00;99.90
12223;DHT22;6174;49.058;8.524;2023-04-16T06:17:44;9.00;99.90
12223;DHT22;6174;49.058;8.524;2023-04-16T06:20:11;9.00;99.90
12223;DHT22;6174;49.058;8.524;2023-04-16T06:22:38;9.00;99.90
12223;DHT22;6174;49.058;8.524;2023-04-16T06:25:06;9.00;99.90
12223;DHT22;6174;49.058;8.524;2023-04-16T06:27:32;9.10;99.90
12223;DHT22;6174;49.058;8.524;2023-04-16T06:29:59;9.10;99.90
12223;DHT22;6174;49.058;8.524;2023-04-16T06:32:26;9.10;99.90
12223;DHT22;6174;49.058;8.524;2023-04-16T06:34:54;9.10;99.90
12223;DHT22;6174;49.058;8.524;2023-04-16T06:37:23;9.10;99.90
12223;DHT22;6174;49.058;8.524;2023-04-16T06:39:49;9.10;99.90
12223;DHT22;6174;49.058;8.524;2023-04-16T06:42:16;9.20;99.90
12223;DHT22;6174;49.058;8.524;2023-04-16T06:44:43;9.10;99.90
12223;DHT22;6174;49.058;8.524;2023-04-16T06:47:10;9.10;99.90
12223;DHT22;6174;49.058;8.524;2023-04-16T06:49:36;9.20;99.90
12223;DHT22;6174;49.058;8.524;2023-04-16T06:52:06;9.20;99.90
12223;DHT22;6174;49.058;8.524;2023-04-16T06:54:32;9.30;99.90
12223;DHT22;6174;49.058;8.524;2023-04-16T06:56:59;9.30;99.90
12223;DHT22;6174;49.058;8.524;2023-04-16T06:59:26;9.30;99.90
12223;DHT22;6174;49.058;8.524;2023-04-16T07:01:53;9.30;99.90
12223;DHT22;6174;49.058;8.524;2023-04-16T07:04:19;9.30;99.90
12223;DHT22;6174;49.058;8.524;2023-04-16T07:06:46;9.30;99.90
12223;DHT22;6174;49.058;8.524;2023-04-16T07:09:14;9.30;99.90
12223;DHT22;6174;49.058;8.524;2023-04-16T07:11:43;9.30;99.90
12223;DHT22;6174;49.058;8.524;2023-04-16T07:14:10;9.30;99.90
12223;DHT22;6174;49.058;8.524;2023-04-16T07:16:36;9.30;99.90
12223;DHT22;6174;49.058;8.524;2023-04-16T07:19:03;9.30;99.90
12223;DHT22;6174;49.058;8.524;2023-04-16T07:21:30;9.30;99.90
12223;DHT22;6174;49.058;8.524;2023-04-16T07:23:57;9.30;99.90
12223;DHT22;6174;49.058;8.524;2023-04-16T07:26:25;9.30;99.90
12223;DHT22;6174;49.058;8.524;2023-04-16T07:28:51;9.30;99.90
12223;DHT22;6174;49.058;8.524;2023-04-16T07:31:18;9.30;99.90
12223;DHT22;6174;49.058;8.524;2023-04-16T07:33:45;9.30;99.90
12223;DHT22;6174;49.058;8.524;2023-04-16T07:36:12;9.30;99.90
12223;DHT22;6174;49.058;8.524;2023-04-16T07:38:38;9.30;99.90
12223;DHT22;6174;49.058;8.524;2023-04-16T07:41:05;9.40;99.90
12223;DHT22;6174;49.058;8.524;2023-04-16T07:43:33;9.40;99.90
12223;DHT22;6174;49.058;8.524;2023-04-16T07:46:00;9.40;99.90
12223;DHT22;6174;49.058;8.524;2023-04-16T07:48:27;9.40;99.90
12223;DHT22;6174;49.058;8.524;2023-04-16T07:50:53;9.50;99.90
12223;DHT22;6174;49.058;8.524;2023-04-16T07:53:20;9.50;99.90
12223;DHT22;6174;49.058;8.524;2023-04-16T07:55:47;9.60;99.90
12223;DHT22;6174;49.058;8.524;2023-04-16T07:58:14;9.60;99.90
12223;DHT22;6174;49.058;8.524;2023-04-16T08:00:42;9.60;99.90
12223;DHT22;6174;49.058;8.524;2023-04-16T08:03:10;9.60;99.90
12223;DHT22;6174;49.058;8.524;2023-04-16T08:05:36;9.60;99.90
12223;DHT22;6174;49.058;8.524;2023-04-16T08:08:03;9.60;99.90
12223;DHT22;6174;49.058;8.524;2023-04-16T08:10:30;9.70;99.90
12223;DHT22;6174;49.058;8.524;2023-04-16T08:12:59;9.70;99.90
12223;DHT22;6174;49.058;8.524;2023-04-16T08:15:26;9.70;99.90
12223;DHT22;6174;49.058;8.524;2023-04-16T08:17:54;9.70;99.90
12223;DHT22;6174;49.058;8.524;2023-04-16T08:20:21;9.70;99.90
12223;DHT22;6174;49.058;8.524;2023-04-16T08:22:48;9.70;99.90
12223;DHT22;6174;49.058;8.524;2023-04-16T08:25:14;9.70;99.90
12223;DHT22;6174;49.058;8.524;2023-04-16T08:27:41;9.70;99.90
12223;DHT22;6174;49.058;8.524;2023-04-16T08:30:08;9.80;99.90
12223;DHT22;6174;49.058;8.524;2023-04-16T08:32:35;9.80;99.90
12223;DHT22;6174;49.058;8.524;2023-04-16T08:35:03;9.70;99.90
12223;DHT22;6174;49.058;8.524;2023-04-16T08:37:30;9.80;99.90
12223;DHT22;6174;49.058;8.524;2023-04-16T08:39:57;9.80;99.90
12223;DHT22;6174;49.058;8.524;2023-04-16T08:42:29;9.80;99.90
12223;DHT22;6174;49.058;8.524;2023-04-16T08:45:05;9.80;99.90
12223;DHT22;6174;49.058;8.524;2023-04-16T08:47:34;9.80;99.90
12223;DHT22;6174;49.058;8.524;2023-04-16T08:50:04;9.80;99.90
12223;DHT22;6174;49.058;8.524;2023-04-16T08:52:31;9.80;99.90
12223;DHT22;6174;49.058;8.524;2023-04-16T08:55:05;9.80;99.90
12223;DHT22;6174;49.058;8.524;2023-04-16T08:57:38;9.90;99.90
12223;DHT22;6174;49.058;8.524;2023-04-16T09:00:10;9.90;99.90
12223;DHT22;6174;49.058;8.524;2023-04-16T09:02:38;9.90;99.90
12223;DHT22;6174;49.058;8.524;2023-04-16T09:05:07;9.90;99.90
12223;DHT22;6174;49.058;8.524;2023-04-16T09:07:35;10.00;99.90
12223;DHT22;6174;49.058;8.524;2023-04-16T09:10:05;10.00;99.90
12223;DHT22;6174;49.058;8.524;2023-04-16T09:12:32;10.00;99.90
12223;DHT22;6174;49.058;8.524;2023-04-16T09:15:01;10.00;99.90
12223;DHT22;6174;49.058;8.524;2023-04-16T09:17:29;10.10;99.90
12223;DHT22;6174;49.058;8.524;2023-04-16T09:19:56;10.10;99.90
12223;DHT22;6174;49.058;8.524;2023-04-16T09:22:24;10.10;99.90
12223;DHT22;6174;49.058;8.524;2023-04-16T09:24:51;10.10;99.90
12223;DHT22;6174;49.058;8.524;2023-04-16T09:27:18;10.00;99.90
12223;DHT22;6174;49.058;8.524;2023-04-16T09:29:45;10.00;99.90
12223;DHT22;6174;49.058;8.524;2023-04-16T09:32:12;10.00;99.90
12223;DHT22;6174;49.058;8.524;2023-04-16T09:34:54;10.10;99.90
12223;DHT22;6174;49.058;8.524;2023-04-16T09:37:22;10.20;99.90
12223;DHT22;6174;49.058;8.524;2023-04-16T09:39:54;10.10;99.90
12223;DHT22;6174;49.058;8.524;2023-04-16T09:42:23;10.20;99.90
12223;DHT22;6174;49.058;8.524;2023-04-16T09:44:52;10.20;99.90
12223;DHT22;6174;49.058;8.524;2023-04-16T09:47:19;10.20;99.90
12223;DHT22;6174;49.058;8.524;2023-04-16T09:49:46;10.20;99.90
12223;DHT22;6174;49.058;8.524;2023-04-16T09:52:13;10.20;99.90
12223;DHT22;6174;49.058;8.524;2023-04-16T09:54:46;10.20;99.90
12223;DHT22;6174;49.058;8.524;2023-04-16T09:57:16;10.30;99.90
12223;DHT22;6174;49.058;8.524;2023-04-16T09:59:45;10.30;99.90
12223;DHT22;6174;49.058;8.524;2023-04-16T10:02:11;10.30;99.90
12223;DHT22;6174;49.058;8.524;2023-04-16T10:04:45;10.30;99.90
12223;DHT22;6174;49.058;8.524;2023-04-16T10:07:12;10.30;99.90
12223;DHT22;6174;49.058;8.524;2023-04-16T10:09:39;10.30;99.90
12223;DHT22;6174;49.058;8.524;2023-04-16T10:12:07;10.30;99.90
12223;DHT22;6174;49.058;8.524;2023-04-16T10:14:35;10.40;99.90
12223;DHT22;6174;49.058;8.524;2023-04-16T10:17:03;10.40;99.90
12223;DHT22;6174;49.058;8.524;2023-04-16T10:19:31;10.40;99.90
12223;DHT22;6174;49.058;8.524;2023-04-16T10:21:58;10.40;99.90
12223;DHT22;6174;49.058;8.524;2023-04-16T10:24:25;10.40;99.90
12223;DHT22;6174;49.058;8.524;2023-04-16T10:26:52;10.30;99.90
12223;DHT22;6174;49.058;8.524;2023-04-16T10:29:19;10.40;99.90
12223;DHT22;6174;49.058;8.524;2023-04-16T10:31:47;10.40;99.90
12223;DHT22;6174;49.058;8.524;2023-04-16T10:34:15;10.40;99.90
12223;DHT22;6174;49.058;8.524;2023-04-16T10:36:42;10.30;99.90
12223;DHT22;6174;49.058;8.524;2023-04-16T10:39:10;10.30;99.90
12223;DHT22;6174;49.058;8.524;2023-04-16T10:41:38;10.30;99.90
12223;DHT22;6174;49.058;8.524;2023-04-16T10:44:06;10.30;99.90
12223;DHT22;6174;49.058;8.524;2023-04-16T10:46:36;10.30;99.90
12223;DHT22;6174;49.058;8.524;2023-04-16T10:49:13;10.20;99.90
12223;DHT22;6174;49.058;8.524;2023-04-16T10:51:41;10.20;99.90
12223;DHT22;6174;49.058;8.524;2023-04-16T10:54:22;10.20;99.90
12223;DHT22;6174;49.058;8.524;2023-04-16T10:56:50;10.20;99.90
12223;DHT22;6174;49.058;8.524;2023-04-16T10:59:18;10.20;99.90
12223;DHT22;6174;49.058;8.524;2023-04-16T11:01:46;10.20;99.90
12223;DHT22;6174;49.058;8.524;2023-04-16T11:04:34;10.20;99.90
12223;DHT22;6174;49.058;8.524;2023-04-16T11:07:05;10.10;99.90
12223;DHT22;6174;49.058;8.524;2023-04-16T11:09:43;10.10;99.90
12223;DHT22;6174;49.058;8.524;2023-04-16T11:12:12;10.10;99.90
12223;DHT22;6174;49.058;8.524;2023-04-16T11:14:39;10.10;99.90
12223;DHT22;6174;49.058;8.524;2023-04-16T11:17:06;10.10;99.90
12223;DHT22;6174;49.058;8.524;2023-04-16T11:19:36;10.00;99.90
12223;DHT22;6174;49.058;8.524;2023-04-16T11:22:03;9.90;99.90
12223;DHT22;6174;49.058;8.524;2023-04-16T11:24:30;9.90;99.90
12223;DHT22;6174;49.058;8.524;2023-04-16T11:26:57;9.90;99.90
12223;DHT22;6174;49.058;8.524;2023-04-16T11:29:24;9.90;99.90
12223;DHT22;6174;49.058;8.524;2023-04-16T11:31:50;9.80;99.90
12223;DHT22;6174;49.058;8.524;2023-04-16T11:34:18;9.80;99.90
12223;DHT22;6174;49.058;8.524;2023-04-16T11:36:48;9.80;99.90
12223;DHT22;6174;49.058;8.524;2023-04-16T11:39:16;9.80;99.90
12223;DHT22;6174;49.058;8.524;2023-04-16T11:41:43;9.80;99.90
12223;DHT22;6174;49.058;8.524;2023-04-16T11:44:17;9.90;99.90
12223;DHT22;6174;49.058;8.524;2023-04-16T11:46:44;9.80;99.90
12223;DHT22;6174;49.058;8.524;2023-04-16T11:49:11;9.80;99.90
12223;DHT22;6174;49.058;8.524;2023-04-16T11:51:39;9.80;99.90
12223;DHT22;6174;49.058;8.524;2023-04-16T11:54:07;9.80;99.90
12223;DHT22;6174;49.058;8.524;2023-04-16T11:56:35;9.70;99.90
12223;DHT22;6174;49.058;8.524;2023-04-16T11:59:09;9.60;99.90
12223;DHT22;6174;49.058;8.524;2023-04-16T12:01:37;9.60;99.90
12223;DHT22;6174;49.058;8.524;2023-04-16T12:04:04;9.70;99.90
12223;DHT22;6174;49.058;8.524;2023-04-16T12:06:31;9.70;99.90
12223;DHT22;6174;49.058;8.524;2023-04-16T12:08:58;9.60;99.90
12223;DHT22;6174;49.058;8.524;2023-04-16T12:11:40;9.60;99.90
12223;DHT22;6174;49.058;8.524;2023-04-16T12:14:07;9.70;99.90
12223;DHT22;6174;49.058;8.524;2023-04-16T12:16:34;9.70;99.90
12223;DHT22;6174;49.058;8.524;2023-04-16T12:19:02;9.80;99.90
12223;DHT22;6174;49.058;8.524;2023-04-16T12:21:36;9.80;99.90
12223;DHT22;6174;49.058;8.524;2023-04-16T12:24:04;9.80;99.90
12223;DHT22;6174;49.058;8.524;2023-04-16T12:26:42;9.60;99.90
12223;DHT22;6174;49.058;8.524;2023-04-16T12:29:18;9.60;99.90
12223;DHT22;6174;49.058;8.524;2023-04-16T12:31:46;9.60;99.90
12223;DHT22;6174;49.058;8.524;2023-04-16T12:34:13;9.70;99.90
12223;DHT22;6174;49.058;8.524;2023-04-16T12:36:40;9.60;99.90
12223;DHT22;6174;49.058;8.524;2023-04-16T12:39:07;9.60;99.90
12223;DHT22;6174;49.058;8.524;2023-04-16T12:41:36;9.60;99.90
12223;DHT22;6174;49.058;8.524;2023-04-16T12:44:08;9.70;99.90
12223;DHT22;6174;49.058;8.524;2023-04-16T12:46:38;9.70;99.90
12223;DHT22;6174;49.058;8.524;2023-04-16T12:49:04;9.70;99.90
12223;DHT22;6174;49.058;8.524;2023-04-16T12:51:31;9.60;99.90
12223;DHT22;6174;49.058;8.524;2023-04-16T12:53:58;9.70;99.90
12223;DHT22;6174;49.058;8.524;2023-04-16T12:56:25;9.60;99.90
12223;DHT22;6174;49.058;8.524;2023-04-16T12:58:52;9.60;99.90
12223;DHT22;6174;49.058;8.524;2023-04-16T13:01:21;9.60;99.90
12223;DHT22;6174;49.058;8.524;2023-04-16T13:03:48;9.60;99.90
12223;DHT22;6174;49.058;8.524;2023-04-16T13:06:16;9.70;99.90
12223;DHT22;6174;49.058;8.524;2023-04-16T13:08:43;9.70;99.90
12223;DHT22;6174;49.058;8.524;2023-04-16T13:11:10;9.70;99.90
12223;DHT22;6174;49.058;8.524;2023-04-16T13:13:37;9.70;99.90
12223;DHT22;6174;49.058;8.524;2023-04-16T13:16:04;9.70;99.90
12223;DHT22;6174;49.058;8.524;2023-04-16T13:18:34;9.70;99.90
12223;DHT22;6174;49.058;8.524;2023-04-16T13:21:02;9.70;99.90
12223;DHT22;6174;49.058;8.524;2023-04-16T13:23:29;9.70;99.90
12223;DHT22;6174;49.058;8.524;2023-04-16T13:25:56;9.70;99.90
12223;DHT22;6174;49.058;8.524;2023-04-16T13:28:23;9.70;99.90
12223;DHT22;6174;49.058;8.524;2023-04-16T13:30:50;9.80;99.90
12223;DHT22;6174;49.058;8.524;2023-04-16T13:33:16;9.90;99.90
12223;DHT22;6174;49.058;8.524;2023-04-16T13:35:45;9.80;99.90
12223;DHT22;6174;49.058;8.524;2023-04-16T13:38:12;9.90;99.90
12223;DHT22;6174;49.058;8.524;2023-04-16T13:40:38;9.90;99.90
12223;DHT22;6174;49.058;8.524;2023-04-16T13:43:05;9.90;99.90
12223;DHT22;6174;49.058;8.524;2023-04-16T13:45:32;9.90;99.90
12223;DHT22;6174;49.058;8.524;2023-04-16T13:47:59;9.90;99.90
12223;DHT22;6174;49.058;8.524;2023-04-16T13:50:26;9.90;99.90
12223;DHT22;6174;49.058;8.524;2023-04-16T13:52:54;10.00;99.90
12223;DHT22;6174;49.058;8.524;2023-04-16T13:55:21;10.00;99.90
12223;DHT22;6174;49.058;8.524;2023-04-16T13:57:47;9.90;99.90
12223;DHT22;6174;49.058;8.524;2023-04-16T14:00:17;10.00;99.90
12223;DHT22;6174;49.058;8.524;2023-04-16T14:02:44;10.00;99.90
12223;DHT22;6174;49.058;8.524;2023-04-16T14:05:12;10.00;99.90
12223;DHT22;6174;49.058;8.524;2023-04-16T14:07:39;9.90;99.90
12223;DHT22;6174;49.058;8.524;2023-04-16T14:10:09;10.00;99.90
12223;DHT22;6174;49.058;8.524;2023-04-16T14:12:36;10.00;99.90
12223;DHT22;6174;49.058;8.524;2023-04-16T14:15:04;10.00;99.90
12223;DHT22;6174;49.058;8.524;2023-04-16T14:17:31;10.00;99.90
12223;DHT22;6174;49.058;8.524;2023-04-16T14:19:58;10.00;99.90
12223;DHT22;6174;49.058;8.524;2023-04-16T14:22:25;10.00;99.90
12223;DHT22;6174;49.058;8.524;2023-04-16T14:24:51;10.00;99.90
12223;DHT22;6174;49.058;8.524;2023-04-16T14:27:19;10.00;99.90
12223;DHT22;6174;49.058;8.524;2023-04-16T14:29:46;10.00;99.90
12223;DHT22;6174;49.058;8.524;2023-04-16T14:32:13;10.00;99.90
12223;DHT22;6174;49.058;8.524;2023-04-16T14:34:40;10.00;99.90
12223;DHT22;6174;49.058;8.524;2023-04-16T14:37:06;10.00;99.90
12223;DHT22;6174;49.058;8.524;2023-04-16T14:39:33;10.00;99.90
12223;DHT22;6174;49.058;8.524;2023-04-16T14:42:00;10.00;99.90
12223;DHT22;6174;49.058;8.524;2023-04-16T14:44:29;10.00;99.90
12223;DHT22;6174;49.058;8.524;2023-04-16T14:46:55;9.90;99.90
12223;DHT22;6174;49.058;8.524;2023-04-16T14:49:22;10.00;99.90
12223;DHT22;6174;49.058;8.524;2023-04-16T14:51:49;10.00;99.90
12223;DHT22;6174;49.058;8.524;2023-04-16T14:54:16;10.00;99.90
12223;DHT22;6174;49.058;8.524;2023-04-16T14:56:43;10.00;99.90
12223;DHT22;6174;49.058;8.524;2023-04-16T14:59:11;9.90;99.90
12223;DHT22;6174;49.058;8.524;2023-04-16T15:01:39;9.90;99.90
12223;DHT22;6174;49.058;8.524;2023-04-16T15:04:06;10.00;99.90
12223;DHT22;6174;49.058;8.524;2023-04-16T15:06:33;10.00;99.90
12223;DHT22;6174;49.058;8.524;2023-04-16T15:09:01;10.00;99.90
12223;DHT22;6174;49.058;8.524;2023-04-16T15:11:27;10.10;99.90
12223;DHT22;6174;49.058;8.524;2023-04-16T15:13:54;10.10;99.90
12223;DHT22;6174;49.058;8.524;2023-04-16T15:16:21;10.10;99.90
12223;DHT22;6174;49.058;8.524;2023-04-16T15:18:49;10.00;99.90
12223;DHT22;6174;49.058;8.524;2023-04-16T15:21:16;9.90;99.90
12223;DHT22;6174;49.058;8.524;2023-04-16T15:23:43;10.10;99.90
12223;DHT22;6174;49.058;8.524;2023-04-16T15:26:09;10.10;99.90
12223;DHT22;6174;49.058;8.524;2023-04-16T15:28:36;10.10;99.90
12223;DHT22;6174;49.058;8.524;2023-04-16T15:31:03;10.00;99.90
12223;DHT22;6174;49.058;8.524;2023-04-16T15:33:30;10.00;99.90
12223;DHT22;6174;49.058;8.524;2023-04-16T15:35:58;10.00;99.90
12223;DHT22;6174;49.058;8.524;2023-04-16T15:38:25;10.00;99.90
12223;DHT22;6174;49.058;8.524;2023-04-16T15:40:54;10.00;99.90
12223;DHT22;6174;49.058;8.524;2023-04-16T15:43:26;10.10;99.90
12223;DHT22;6174;49.058;8.524;2023-04-16T15:45:54;10.00;99.90
12223;DHT22;6174;49.058;8.524;2023-04-16T15:48:22;10.00;99.90
12223;DHT22;6174;49.058;8.524;2023-04-16T15:50:49;10.00;99.90
12223;DHT22;6174;49.058;8.524;2023-04-16T15:53:17;10.10;99.90
12223;DHT22;6174;49.058;8.524;2023-04-16T15:55:44;10.00;99.90
12223;DHT22;6174;49.058;8.524;2023-04-16T15:58:11;10.00;99.90
12223;DHT22;6174;49.058;8.524;2023-04-16T16:00:38;10.10;99.90
12223;DHT22;6174;49.058;8.524;2023-04-16T16:03:05;10.10;99.90
12223;DHT22;6174;49.058;8.524;2023-04-16T16:05:32;10.10;99.90
12223;DHT22;6174;49.058;8.524;2023-04-16T16:07:58;10.10;99.90
12223;DHT22;6174;49.058;8.524;2023-04-16T16:10:27;10.10;99.90
12223;DHT22;6174;49.058;8.524;2023-04-16T16:12:54;10.10;99.90
12223;DHT22;6174;49.058;8.524;2023-04-16T16:15:21;10.10;99.90
12223;DHT22;6174;49.058;8.524;2023-04-16T16:17:48;10.10;99.90
12223;DHT22;6174;49.058;8.524;2023-04-16T16:20:17;10.10;99.90
12223;DHT22;6174;49.058;8.524;2023-04-16T16:22:44;10.10;99.90
12223;DHT22;6174;49.058;8.524;2023-04-16T16:25:12;10.10;99.90
12223;DHT22;6174;49.058;8.524;2023-04-16T16:27:40;10.10;99.90
12223;DHT22;6174;49.058;8.524;2023-04-16T16:30:08;10.10;99.90
12223;DHT22;6174;49.058;8.524;2023-04-16T16:32:35;10.10;99.90
12223;DHT22;6174;49.058;8.524;2023-04-16T16:35:06;10.10;99.90
12223;DHT22;6174;49.058;8.524;2023-04-16T16:37:33;10.00;99.90
12223;DHT22;6174;49.058;8.524;2023-04-16T16:39:59;10.10;99.90
12223;DHT22;6174;49.058;8.524;2023-04-16T16:42:26;10.10;99.90
12223;DHT22;6174;49.058;8.524;2023-04-16T16:44:54;10.10;99.90
12223;DHT22;6174;49.058;8.524;2023-04-16T16:47:21;10.10;99.90
12223;DHT22;6174;49.058;8.524;2023-04-16T16:49:48;10.00;99.90
12223;DHT22;6174;49.058;8.524;2023-04-16T16:52:15;10.10;99.90
12223;DHT22;6174;49.058;8.524;2023-04-16T16:54:42;10.10;99.90
12223;DHT22;6174;49.058;8.524;2023-04-16T16:57:10;10.10;99.90
12223;DHT22;6174;49.058;8.524;2023-04-16T16:59:37;10.10;99.90
12223;DHT22;6174;49.058;8.524;2023-04-16T17:02:06;10.10;99.90
12223;DHT22;6174;49.058;8.524;2023-04-16T17:04:32;10.10;99.90
12223;DHT22;6174;49.058;8.524;2023-04-16T17:06:59;10.10;99.90
12223;DHT22;6174;49.058;8.524;2023-04-16T17:09:26;10.10;99.90
12223;DHT22;6174;49.058;8.524;2023-04-16T17:11:53;10.10;99.90
12223;DHT22;6174;49.058;8.524;2023-04-16T17:14:19;10.10;99.90
12223;DHT22;6174;49.058;8.524;2023-04-16T17:16:46;10.10;99.90
12223;DHT22;6174;49.058;8.524;2023-04-16T17:19:15;10.00;99.90
12223;DHT22;6174;49.058;8.524;2023-04-16T17:21:43;10.00;99.90
12223;DHT22;6174;49.058;8.524;2023-04-16T17:24:10;10.00;99.90
12223;DHT22;6174;49.058;8.524;2023-04-16T17:26:37;10.00;99.90
12223;DHT22;6174;49.058;8.524;2023-04-16T17:29:05;10.00;99.90
12223;DHT22;6174;49.058;8.524;2023-04-16T17:31:32;10.10;99.90
12223;DHT22;6174;49.058;8.524;2023-04-16T17:33:58;10.00;99.90
12223;DHT22;6174;49.058;8.524;2023-04-16T17:36:26;10.00;99.90
12223;DHT22;6174;49.058;8.524;2023-04-16T17:38:53;10.00;99.90
12223;DHT22;6174;49.058;8.524;2023-04-16T17:41:20;10.00;99.90
12223;DHT22;6174;49.058;8.524;2023-04-16T17:43:48;10.00;99.90
12223;DHT22;6174;49.058;8.524;2023-04-16T17:46:15;10.00;99.90
12223;DHT22;6174;49.058;8.524;2023-04-16T17:48:42;10.00;99.90
12223;DHT22;6174;49.058;8.524;2023-04-16T17:51:09;10.00;99.90
12223;DHT22;6174;49.058;8.524;2023-04-16T17:53:38;10.00;99.90
12223;DHT22;6174;49.058;8.524;2023-04-16T17:56:07;10.00;99.90
12223;DHT22;6174;49.058;8.524;2023-04-16T17:58:34;10.00;99.90
12223;DHT22;6174;49.058;8.524;2023-04-16T18:01:01;10.00;99.90
12223;DHT22;6174;49.058;8.524;2023-04-16T18:03:28;10.00;99.90
12223;DHT22;6174;49.058;8.524;2023-04-16T18:05:55;10.10;99.90
12223;DHT22;6174;49.058;8.524;2023-04-16T18:08:22;10.00;99.90
12223;DHT22;6174;49.058;8.524;2023-04-16T18:10:50;10.00;99.90
12223;DHT22;6174;49.058;8.524;2023-04-16T18:13:19;10.00;99.90
12223;DHT22;6174;49.058;8.524;2023-04-16T18:15:46;10.00;99.90
12223;DHT22;6174;49.058;8.524;2023-04-16T18:18:13;10.00;99.90
12223;DHT22;6174;49.058;8.524;2023-04-16T18:20:40;10.00;99.90
12223;DHT22;6174;49.058;8.524;2023-04-16T18:23:06;10.00;99.90
12223;DHT22;6174;49.058;8.524;2023-04-16T18:25:33;10.00;99.90
12223;DHT22;6174;49.058;8.524;2023-04-16T18:28:01;9.90;99.90
12223;DHT22;6174;49.058;8.524;2023-04-16T18:30:30;9.90;99.90
12223;DHT22;6174;49.058;8.524;2023-04-16T18:32:57;10.00;99.90
12223;DHT22;6174;49.058;8.524;2023-04-16T18:35:24;9.90;99.90
12223;DHT22;6174;49.058;8.524;2023-04-16T18:37:50;10.00;99.90
12223;DHT22;6174;49.058;8.524;2023-04-16T18:40:17;9.90;99.90
12223;DHT22;6174;49.058;8.524;2023-04-16T18:42:44;9.90;99.90
12223;DHT22;6174;49.058;8.524;2023-04-16T18:45:12;9.90;99.90
12223;DHT22;6174;49.058;8.524;2023-04-16T18:47:39;10.00;99.90
12223;DHT22;6174;49.058;8.524;2023-04-16T18:50:07;9.90;99.90
12223;DHT22;6174;49.058;8.524;2023-04-16T18:52:34;9.90;99.90
12223;DHT22;6174;49.058;8.524;2023-04-16T18:55:01;9.90;99.90
12223;DHT22;6174;49.058;8.524;2023-04-16T18:57:28;9.90;99.90
12223;DHT22;6174;49.058;8.524;2023-04-16T18:59:55;9.90;99.90
12223;DHT22;6174;49.058;8.524;2023-04-16T19:02:23;9.90;99.90
12223;DHT22;6174;49.058;8.524;2023-04-16T19:04:50;9.90;99.90
12223;DHT22;6174;49.058;8.524;2023-04-16T19:07:16;9.90;99.90
12223;DHT22;6174;49.058;8.524;2023-04-16T19:09:43;9.90;99.90
12223;DHT22;6174;49.058;8.524;2023-04-16T19:12:10;9.90;99.90
12223;DHT22;6174;49.058;8.524;2023-04-16T19:14:37;9.90;99.90
12223;DHT22;6174;49.058;8.524;2023-04-16T19:17:03;9.90;99.90
12223;DHT22;6174;49.058;8.524;2023-04-16T19:19:31;9.90;99.90
12223;DHT22;6174;49.058;8.524;2023-04-16T19:21:58;9.90;99.90
12223;DHT22;6174;49.058;8.524;2023-04-16T19:24:25;9.90;99.90
12223;DHT22;6174;49.058;8.524;2023-04-16T19:26:52;9.80;99.90
12223;DHT22;6174;49.058;8.524;2023-04-16T19:29:18;9.80;99.90
12223;DHT22;6174;49.058;8.524;2023-04-16T19:31:45;9.80;99.90
12223;DHT22;6174;49.058;8.524;2023-04-16T19:34:12;9.90;99.90
12223;DHT22;6174;49.058;8.524;2023-04-16T19:36:41;9.80;99.90
12223;DHT22;6174;49.058;8.524;2023-04-16T19:39:09;9.90;99.90
12223;DHT22;6174;49.058;8.524;2023-04-16T19:41:36;9.80;99.90
12223;DHT22;6174;49.058;8.524;2023-04-16T19:44:02;9.90;99.90
12223;DHT22;6174;49.058;8.524;2023-04-16T19:46:30;9.80;99.90
12223;DHT22;6174;49.058;8.524;2023-04-16T19:48:56;9.80;99.90
12223;DHT22;6174;49.058;8.524;2023-04-16T19:51:23;9.80;99.90
12223;DHT22;6174;49.058;8.524;2023-04-16T19:53:53;9.90;99.90
12223;DHT22;6174;49.058;8.524;2023-04-16T19:56:20;9.90;99.90
12223;DHT22;6174;49.058;8.524;2023-04-16T19:58:47;9.90;99.90
12223;DHT22;6174;49.058;8.524;2023-04-16T20:01:13;9.90;99.90
12223;DHT22;6174;49.058;8.524;2023-04-16T20:03:40;9.90;99.90
12223;DHT22;6174;49.058;8.524;2023-04-16T20:06:07;9.90;99.90
12223;DHT22;6174;49.058;8.524;2023-04-16T20:08:34;9.90;99.90
12223;DHT22;6174;49.058;8.524;2023-04-16T20:11:02;9.80;99.90
12223;DHT22;6174;49.058;8.524;2023-04-16T20:13:28;9.90;99.90
12223;DHT22;6174;49.058;8.524;2023-04-16T20:15:55;9.90;99.90
12223;DHT22;6174;49.058;8.524;2023-04-16T20:18:22;9.90;99.90
12223;DHT22;6174;49.058;8.524;2023-04-16T20:20:50;9.90;99.90
12223;DHT22;6174;49.058;8.524;2023-04-16T20:23:17;9.90;99.90
12223;DHT22;6174;49.058;8.524;2023-04-16T20:25:44;9.90;99.90
12223;DHT22;6174;49.058;8.524;2023-04-16T20:28:12;9.80;99.90
12223;DHT22;6174;49.058;8.524;2023-04-16T20:30:40;9.80;99.90
12223;DHT22;6174;49.058;8.524;2023-04-16T20:33:08;9.80;99.90
12223;DHT22;6174;49.058;8.524;2023-04-16T20:35:34;9.80;99.90
12223;DHT22;6174;49.058;8.524;2023-04-16T20:38:01;9.80;99.90
12223;DHT22;6174;49.058;8.524;2023-04-16T20:40:28;9.80;99.90
12223;DHT22;6174;49.058;8.524;2023-04-16T20:42:55;9.80;99.90
12223;DHT22;6174;49.058;8.524;2023-04-16T20:45:26;9.80;99.90
12223;DHT22;6174;49.058;8.524;2023-04-16T20:47:56;9.80;99.90
12223;DHT22;6174;49.058;8.524;2023-04-16T20:50:23;9.80;99.90
12223;DHT22;6174;49.058;8.524;2023-04-16T20:52:50;9.80;99.90
12223;DHT22;6174;49.058;8.524;2023-04-16T20:55:17;9.80;99.90
12223;DHT22;6174;49.058;8.524;2023-04-16T20:57:44;9.80;99.90
12223;DHT22;6174;49.058;8.524;2023-04-16T21:00:11;9.80;99.90
12223;DHT22;6174;49.058;8.524;2023-04-16T21:02:40;9.70;99.90
12223;DHT22;6174;49.058;8.524;2023-04-16T21:05:08;9.70;99.90
12223;DHT22;6174;49.058;8.524;2023-04-16T21:07:38;9.70;99.90
12223;DHT22;6174;49.058;8.524;2023-04-16T21:10:06;9.70;99.90
12223;DHT22;6174;49.058;8.524;2023-04-16T21:12:33;9.70;99.90
12223;DHT22;6174;49.058;8.524;2023-04-16T21:15:00;9.70;99.90
12223;DHT22;6174;49.058;8.524;2023-04-16T21:17:27;9.70;99.90
12223;DHT22;6174;49.058;8.524;2023-04-16T21:19:55;9.70;99.90
12223;DHT22;6174;49.058;8.524;2023-04-16T21:22:22;9.70;99.90
12223;DHT22;6174;49.058;8.524;2023-04-16T21:24:49;9.70;99.90
12223;DHT22;6174;49.058;8.524;2023-04-16T21:27:15;9.70;99.90
12223;DHT22;6174;49.058;8.524;2023-04-16T21:29:42;9.70;99.90
12223;DHT22;6174;49.058;8.524;2023-04-16T21:32:09;9.70;99.90
12223;DHT22;6174;49.058;8.524;2023-04-16T21:34:35;9.70;99.90
12223;DHT22;6174;49.058;8.524;2023-04-16T21:37:03;9.70;99.90
12223;DHT22;6174;49.058;8.524;2023-04-16T21:39:31;9.70;99.90
12223;DHT22;6174;49.058;8.524;2023-04-16T21:41:57;9.70;99.90
12223;DHT22;6174;49.058;8.524;2023-04-16T21:44:24;9.70;99.90
12223;DHT22;6174;49.058;8.524;2023-04-16T21:46:51;9.70;99.90
12223;DHT22;6174;49.058;8.524;2023-04-16T21:49:18;9.70;99.90
12223;DHT22;6174;49.058;8.524;2023-04-16T21:51:45;9.70;99.90
12223;DHT22;6174;49.058;8.524;2023-04-16T21:54:13;9.70;99.90
12223;DHT22;6174;49.058;8.524;2023-04-16T21:56:42;9.70;99.90